• Join FlightAware (Why Join?)
  • Login
  • US Flag 
07:19PM EST


 

Airport Tracker/Info


-or-


 

Live Flight TrackerFlight Track Log ✈ AAL2059 ✈ 19-Jul-2013 ✈ KDFW - KCOS

Flight Track Log - Related Links

Times and Time Zones

All times are in EDT time to prevent confusion due to time zone crossing. See the AAL2059 flight status page for this flight to view local times or setup timezone preferences in your user account.

Time Position Orientation Groundspeed Altitude Reporting Facility
EDT Latitude Longitude Course Direction KTS MPH feet Rate Location/Type
07:38PM 32.8479 -96.8004 10° North  Level FlightAware Approximate
07:39PM 32.9666 -96.8000 North  Level FlightAware Approximate
07:40PM 33.0708 -96.8624 333° Northwest  Level FlightAware Approximate
07:41PM 33.1769 -96.9261 333° Northwest  Level FlightAware Approximate
07:42PM 33.2825 -96.9911 332° Northwest  Level FlightAware Approximate
07:43PM 33.3764 -97.0632 337° Northwest  Level FlightAware Approximate
07:44PM 33.4882 -97.0928 16° North  Level FlightAware Approximate
07:45PM 33.6057 -97.0765 North  Level FlightAware Approximate
07:46PM 33.7243 -97.0674 North  Level FlightAware Approximate
07:47PM 33.8413 -97.0441 North  Level FlightAware Approximate
07:48PM 33.9595 -97.0333 North  Level FlightAware Approximate
07:49PM 34.0776 -97.0186 North  Level FlightAware Approximate
07:50PM 34.1956 -97.0028 North  Level FlightAware Approximate
07:51PM 34.3139 -96.9903 North  Level FlightAware Approximate
07:52PM 34.4269 -97.0107 333° Northwest  Level FlightAware Approximate
07:53PM 34.5323 -97.0771 333° Northwest  Level FlightAware Approximate
07:54PM 34.6377 -97.1437 333° Northwest  Level FlightAware Approximate
07:55PM 34.7430 -97.2104 333° Northwest  Level FlightAware Approximate
07:56PM 34.8483 -97.2773 332° Northwest  Level FlightAware Approximate
07:57PM 34.9536 -97.3444 332° Northwest  Level FlightAware Approximate
07:58PM 35.0588 -97.4116 332° Northwest  Level FlightAware Approximate
07:59PM 35.1638 -97.4794 332° Northwest  Level FlightAware Approximate
08:00PM 35.2688 -97.5473 332° Northwest  Level FlightAware Approximate
08:01PM 35.3632 -97.6288 299° West  Level FlightAware Approximate
08:02PM 35.4213 -97.7558 299° West  Level FlightAware Approximate
08:03PM 35.4793 -97.8831 299° West  Level FlightAware Approximate
08:04PM 35.5371 -98.0105 299° West  Level FlightAware Approximate
08:05PM 35.5948 -98.1381 299° West  Level FlightAware Approximate
08:06PM 35.6524 -98.2659 299° West  Level FlightAware Approximate
08:07PM 35.7098 -98.3939 299° West  Level FlightAware Approximate
08:08PM 35.7671 -98.5220 299° West  Level FlightAware Approximate
08:09PM 35.8234 -98.6508 295° West  Level FlightAware Approximate
08:10PM 35.8744 -98.7832 295° West  Level FlightAware Approximate
08:11PM 35.9281 -98.9139 299° West  Level FlightAware Approximate
08:12PM 35.9847 -99.0429 298° West  Level FlightAware Approximate
08:13PM 36.0411 -99.1721 298° West  Level FlightAware Approximate
08:14PM 36.0974 -99.3015 298° West  Level FlightAware Approximate
08:15PM 36.1535 -99.4310 298° West  Level FlightAware Approximate
08:16PM 36.2086 -99.5614 297° West  Level FlightAware Approximate
08:17PM 36.2623 -99.6926 297° West  Level FlightAware Approximate
08:18PM 36.3160 -99.8241 297° West  Level FlightAware Approximate
08:19PM 36.3836 -99.9445 309° West  Level FlightAware Approximate
08:20PM 36.4578 -100.0597 309° West  Level FlightAware Approximate
08:21PM 36.5319 -100.1751 309° West  Level FlightAware Approximate
08:22PM 36.6059 -100.2908 309° West  Level FlightAware Approximate
08:23PM 36.6798 -100.4066 309° West  Level FlightAware Approximate
08:24PM 36.7536 -100.5228 308° West  Level FlightAware Approximate
08:25PM 36.8273 -100.6391 308° West  Level FlightAware Approximate
08:26PM 36.9008 -100.7556 308° West  Level FlightAware Approximate
08:27PM 36.9742 -100.8724 308° West  Level FlightAware Approximate
08:28PM 37.0481 -100.9888 310° West  Level FlightAware Approximate
08:29PM 37.1244 -101.1029 310° West  Level FlightAware Approximate
08:30PM 37.2005 -101.2173 310° West  Level FlightAware Approximate
08:31PM 37.2786 -101.3297 312° West  Level FlightAware Approximate
08:32PM 37.3580 -101.4407 312° West  Level FlightAware Approximate
08:33PM 37.4373 -101.5520 312° West  Level FlightAware Approximate
08:34PM 37.5151 -101.6650 310° West  Level FlightAware Approximate
08:35PM 37.5908 -101.7804 310° West  Level FlightAware Approximate
08:36PM 37.6664 -101.8960 310° West  Level FlightAware Approximate
08:37PM 37.7419 -102.0119 310° West  Level FlightAware Approximate
08:38PM 37.8198 -102.1254 312° West  Level FlightAware Approximate
08:39PM 37.8987 -102.2377 312° West  Level FlightAware Approximate
08:40PM 37.9776 -102.3503 312° West  Level FlightAware Approximate
08:41PM 38.0563 -102.4632 312° West  Level FlightAware Approximate
08:42PM 38.1274 -102.5823 293° West  Level FlightAware Approximate
08:43PM 38.1974 -102.7036 311° West  Level FlightAware Approximate
08:44PM 38.2759 -102.8169 311° West  Level FlightAware Approximate
08:45PM 38.3527 -102.9323 307° West  Level FlightAware Approximate
08:46PM 38.4306 -103.0463 314° West  Level FlightAware Approximate
08:47PM 38.5078 -103.1609 312° West  Level FlightAware Approximate
08:48PM 38.5870 -103.2740 303° West  Level FlightAware Approximate
08:49PM 38.6590 -103.3943 312° West  Level FlightAware Approximate
08:50PM 38.7378 -103.5081 312° West  Level FlightAware Approximate
08:51PM 38.8171 -103.6205 277° West  Level FlightAware Approximate
08:52PM 38.8322 -103.7717 277° West  Level FlightAware Approximate
08:53PM 38.8519 -103.9221 280° West  Level FlightAware Approximate
08:54PM 38.8667 -104.0730 270° West  Level FlightAware Approximate
08:55PM 38.8864 -104.2226 276° West  Level FlightAware Approximate
08:56PM 38.8981 -104.3745 276° West  Level FlightAware Approximate
08:57PM 38.9179 -104.5249 280° West  Level FlightAware Approximate